createdAt,value
2018-08-24T00:00:40.688Z,18.41
2018-08-24T00:03:44.330Z,18.43
2018-08-24T00:06:48.043Z,18.36
2018-08-24T00:09:52.198Z,18.47
2018-08-24T00:12:55.823Z,18.41
2018-08-24T00:15:59.457Z,18.40
2018-08-24T00:19:03.018Z,18.42
2018-08-24T00:22:06.696Z,18.40
2018-08-24T00:25:10.437Z,18.34
2018-08-24T00:28:14.072Z,18.29
2018-08-24T00:31:17.733Z,18.22
2018-08-24T00:34:21.418Z,18.19
2018-08-24T00:37:25.093Z,18.15
2018-08-24T00:40:28.677Z,18.19
2018-08-24T00:43:32.283Z,18.33
2018-08-24T00:46:35.873Z,18.32
2018-08-24T00:49:39.522Z,18.27
2018-08-24T00:52:43.189Z,18.17
2018-08-24T00:55:46.837Z,18.04
2018-08-24T00:58:50.453Z,17.98
2018-08-24T01:01:54.111Z,18.10
2018-08-24T01:04:57.749Z,18.08
2018-08-24T01:08:07.466Z,18.13
2018-08-24T01:11:10.997Z,18.24
2018-08-24T01:14:14.691Z,18.40
2018-08-24T01:17:23.575Z,18.39
2018-08-24T01:20:30.256Z,18.42
2018-08-24T01:23:34.907Z,18.32
2018-08-24T01:26:38.548Z,18.37
2018-08-24T01:29:43.283Z,18.44
2018-08-24T01:32:46.969Z,18.51
2018-08-24T01:35:50.788Z,18.54
2018-08-24T01:38:54.407Z,18.58
2018-08-24T01:41:58.368Z,18.62
2018-08-24T01:45:01.998Z,18.67
2018-08-24T01:48:05.898Z,18.67
2018-08-24T01:51:09.536Z,18.59
2018-08-24T01:54:13.223Z,18.44
2018-08-24T01:57:16.863Z,18.38
2018-08-24T02:00:20.453Z,18.21
2018-08-24T02:03:24.154Z,18.19
2018-08-24T02:06:27.878Z,18.13
2018-08-24T02:09:31.493Z,18.18
2018-08-24T02:12:40.419Z,18.11
2018-08-24T02:15:45.259Z,18.10
2018-08-24T02:18:53.991Z,18.07
2018-08-24T02:22:02.887Z,18.06
2018-08-24T02:25:06.659Z,18.10
2018-08-24T02:28:10.367Z,18.04
2018-08-24T02:31:14.177Z,17.92
2018-08-24T02:34:17.808Z,17.93
2018-08-24T02:37:21.420Z,17.85
2018-08-24T02:40:25.084Z,17.84
2018-08-24T02:43:28.891Z,17.77
2018-08-24T02:46:32.547Z,17.79
2018-08-24T02:49:36.209Z,17.76
2018-08-24T02:52:39.942Z,17.74
2018-08-24T02:55:43.554Z,17.76
2018-08-24T02:58:47.279Z,17.70
2018-08-24T03:01:51.784Z,17.56
2018-08-24T03:04:55.357Z,17.61
2018-08-24T03:07:58.975Z,17.59
2018-08-24T03:11:02.753Z,17.46
2018-08-24T03:14:06.383Z,17.41
2018-08-24T03:17:15.239Z,17.39
2018-08-24T03:20:18.833Z,17.34
2018-08-24T03:23:22.455Z,17.35
2018-08-24T03:26:26.084Z,17.34
2018-08-24T03:29:29.757Z,17.23
2018-08-24T03:32:33.420Z,17.23
2018-08-24T03:35:37.086Z,17.25
2018-08-24T03:38:40.732Z,17.25
2018-08-24T03:41:44.361Z,17.17
2018-08-24T03:44:47.940Z,17.20
2018-08-24T03:47:51.579Z,17.14
2018-08-24T03:50:55.195Z,17.14
2018-08-24T03:53:58.797Z,17.13
2018-08-24T03:57:02.384Z,17.03
2018-08-24T04:00:06.065Z,16.99
2018-08-24T04:03:09.645Z,17.03
2018-08-24T04:06:13.304Z,17.04
2018-08-24T04:09:17.809Z,17.02
2018-08-24T04:12:21.394Z,16.95
2018-08-24T04:15:25.245Z,16.95
2018-08-24T04:18:28.947Z,16.91
2018-08-24T04:21:32.565Z,16.86
2018-08-24T04:24:36.160Z,16.81
2018-08-24T04:27:40.344Z,16.78
2018-08-24T04:30:43.946Z,16.69
2018-08-24T04:33:47.698Z,16.64
2018-08-24T04:36:51.428Z,16.49
2018-08-24T04:39:55.049Z,16.51
2018-08-24T04:42:58.648Z,16.48
2018-08-24T04:46:02.285Z,16.43
2018-08-24T04:49:06.053Z,16.35
2018-08-24T04:52:09.654Z,16.34
2018-08-24T04:55:13.263Z,16.32
2018-08-24T04:58:16.936Z,16.27
2018-08-24T05:01:20.803Z,16.35
2018-08-24T05:04:24.587Z,16.40
2018-08-24T05:07:28.150Z,16.48
2018-08-24T05:10:31.745Z,16.49
2018-08-24T05:13:35.338Z,16.65
2018-08-24T05:16:38.890Z,16.59
2018-08-24T05:19:42.475Z,16.61
2018-08-24T05:22:46.152Z,16.59
2018-08-24T05:25:49.718Z,16.80
2018-08-24T05:28:53.400Z,16.78
2018-08-24T05:31:56.999Z,17.02
2018-08-24T05:35:00.605Z,17.05
2018-08-24T05:38:04.276Z,17.05
2018-08-24T05:41:07.929Z,17.06
2018-08-24T05:44:11.474Z,16.98
2018-08-24T05:47:15.059Z,17.81
2018-08-24T05:50:18.709Z,18.22
2018-08-24T05:53:22.434Z,18.39
2018-08-24T05:56:26.104Z,18.59
2018-08-24T05:59:29.709Z,18.21
2018-08-24T06:02:33.355Z,18.09
2018-08-24T06:05:41.447Z,17.72
2018-08-24T06:08:45.106Z,17.46
2018-08-24T06:11:48.908Z,17.24
2018-08-24T06:14:52.494Z,17.03
2018-08-24T06:17:57.064Z,17.17
2018-08-24T06:21:00.876Z,17.38
2018-08-24T06:24:04.800Z,17.02
2018-08-24T06:27:08.505Z,16.98
2018-08-24T06:30:12.215Z,16.92
2018-08-24T06:33:16.012Z,17.09
2018-08-24T06:36:19.680Z,17.19
2018-08-24T06:39:23.366Z,17.19
2018-08-24T06:42:26.995Z,17.16
2018-08-24T06:45:30.656Z,17.40
2018-08-24T06:48:34.324Z,17.66
2018-08-24T06:51:38.075Z,17.73
2018-08-24T06:54:41.757Z,18.06
2018-08-24T06:57:45.422Z,18.26
2018-08-24T07:00:49.042Z,18.22
2018-08-24T07:03:53.545Z,18.58
2018-08-24T07:06:57.157Z,18.39
2018-08-24T07:10:00.776Z,18.30
2018-08-24T07:13:04.603Z,18.22
2018-08-24T07:16:08.335Z,18.51
2018-08-24T07:19:11.940Z,18.37
2018-08-24T07:22:15.556Z,18.46
2018-08-24T07:25:19.278Z,18.28
2018-08-24T07:28:22.873Z,18.23
2018-08-24T07:31:26.566Z,18.43
2018-08-24T07:34:30.407Z,18.43
2018-08-24T07:37:34.127Z,18.58
2018-08-24T07:40:37.854Z,18.92
2018-08-24T07:43:41.596Z,18.61
2018-08-24T07:46:45.328Z,19.08
2018-08-24T07:49:49.251Z,19.06
2018-08-24T07:52:52.893Z,19.33
2018-08-24T07:55:56.642Z,19.35
2018-08-24T07:59:01.660Z,19.25
2018-08-24T08:02:05.361Z,19.27
2018-08-24T08:05:09.137Z,19.25
2018-08-24T08:08:12.851Z,19.70
2018-08-24T08:11:16.582Z,19.46
2018-08-24T08:14:20.256Z,19.17
2018-08-24T08:17:23.962Z,19.46
2018-08-24T08:20:27.714Z,19.62
2018-08-24T08:23:31.556Z,19.42
2018-08-24T08:26:35.421Z,19.27
2018-08-24T08:29:44.369Z,18.78
2018-08-24T08:32:48.067Z,18.91
2018-08-24T08:35:51.823Z,19.10
2018-08-24T08:38:55.517Z,18.77
2018-08-24T08:41:59.218Z,19.02
2018-08-24T08:45:02.963Z,19.14
2018-08-24T08:48:06.737Z,19.11
2018-08-24T08:51:10.638Z,19.15
2018-08-24T08:54:14.412Z,19.33
2018-08-24T08:57:18.083Z,18.94
2018-08-24T09:00:21.737Z,18.98
2018-08-24T09:03:25.449Z,18.99
2018-08-24T09:06:29.136Z,18.95
2018-08-24T09:09:32.772Z,19.08
2018-08-24T09:12:36.652Z,18.85
2018-08-24T09:15:40.409Z,18.55
2018-08-24T09:18:49.299Z,18.34
2018-08-24T09:21:58.257Z,17.41
2018-08-24T09:25:07.137Z,16.41
2018-08-24T09:28:15.953Z,16.20
2018-08-24T09:31:23.997Z,16.07
2018-08-24T09:34:27.777Z,16.13
2018-08-24T09:37:36.098Z,16.30
2018-08-24T09:40:44.920Z,16.42
2018-08-24T09:43:53.743Z,16.79
2018-08-24T09:47:02.621Z,16.62
2018-08-24T09:50:12.029Z,16.95
2018-08-24T09:53:20.924Z,16.85
2018-08-24T09:56:24.719Z,17.16
2018-08-24T09:59:28.480Z,17.26
2018-08-24T10:02:44.580Z,17.11
2018-08-24T10:05:53.322Z,17.17
2018-08-24T10:08:57.138Z,17.49
2018-08-24T10:12:00.955Z,17.68
2018-08-24T10:15:06.308Z,17.83
2018-08-24T10:18:10.115Z,17.92
2018-08-24T10:21:13.802Z,17.96
2018-08-24T10:24:17.499Z,18.76
2018-08-24T10:27:21.114Z,18.52
2018-08-24T10:30:25.757Z,18.82
2018-08-24T10:33:29.437Z,19.27
2018-08-24T10:36:33.225Z,19.08
2018-08-24T10:39:36.893Z,18.21
2018-08-24T10:42:40.689Z,18.11
2018-08-24T10:45:44.428Z,17.99
2018-08-24T10:48:48.277Z,18.40
2018-08-24T10:51:51.992Z,18.39
2018-08-24T10:54:55.761Z,17.99
2018-08-24T10:57:59.628Z,18.26
2018-08-24T11:01:03.384Z,18.13
2018-08-24T11:04:07.129Z,18.33
2018-08-24T11:07:10.880Z,17.96
2018-08-24T11:10:14.590Z,18.07
2018-08-24T11:13:18.254Z,18.37
2018-08-24T11:16:21.900Z,18.56
2018-08-24T11:19:25.598Z,18.68
2018-08-24T11:22:29.343Z,18.10
2018-08-24T11:25:33.027Z,18.48
2018-08-24T11:28:36.855Z,18.77
2018-08-24T11:31:40.584Z,19.18
2018-08-24T11:34:44.360Z,19.33
2018-08-24T11:37:48.103Z,19.37
2018-08-24T11:40:51.719Z,19.77
2018-08-24T11:43:55.403Z,19.85
2018-08-24T11:46:59.060Z,19.75
2018-08-24T11:50:02.746Z,20.02
2018-08-24T11:53:06.769Z,19.81
2018-08-24T11:56:10.405Z,19.71
2018-08-24T11:59:14.059Z,19.68
2018-08-24T12:02:17.705Z,19.94
2018-08-24T12:05:21.363Z,20.27
2018-08-24T12:08:25.152Z,20.26
2018-08-24T12:11:28.796Z,20.39
2018-08-24T12:14:32.449Z,20.70
2018-08-24T12:17:37.636Z,20.48
2018-08-24T12:20:41.396Z,20.28
2018-08-24T12:23:45.009Z,20.59
2018-08-24T12:26:48.700Z,20.75
2018-08-24T12:29:52.365Z,20.36
2018-08-24T12:32:56.045Z,20.66
2018-08-24T12:35:59.725Z,20.49
2018-08-24T12:39:03.686Z,20.79
2018-08-24T12:42:08.359Z,21.00
2018-08-24T12:45:12.231Z,20.70
2018-08-24T12:48:15.869Z,20.83
2018-08-24T12:51:19.554Z,20.69
2018-08-24T12:54:23.275Z,20.63
2018-08-24T12:57:27.909Z,20.44
2018-08-24T13:00:31.616Z,20.68
2018-08-24T13:03:35.281Z,20.53
2018-08-24T13:06:38.982Z,20.45
2018-08-24T13:09:42.660Z,20.40
2018-08-24T13:12:46.325Z,20.60
2018-08-24T13:15:50.204Z,20.41
2018-08-24T13:18:53.951Z,20.66
2018-08-24T13:21:57.634Z,20.81
2018-08-24T13:25:01.321Z,20.66
2018-08-24T13:28:05.057Z,20.27
2018-08-24T13:31:08.776Z,20.05
2018-08-24T13:34:12.470Z,19.91
2018-08-24T13:37:16.353Z,20.09
2018-08-24T13:40:19.949Z,20.30
2018-08-24T13:43:23.624Z,20.61
2018-08-24T13:46:27.533Z,20.79
2018-08-24T13:49:31.207Z,21.14
2018-08-24T13:52:34.873Z,21.18
2018-08-24T13:55:38.642Z,20.60
2018-08-24T13:58:42.288Z,20.90
2018-08-24T14:01:46.138Z,20.96
2018-08-24T14:04:49.795Z,21.19
2018-08-24T14:07:53.550Z,21.08
2018-08-24T14:10:57.215Z,21.36
2018-08-24T14:14:00.895Z,21.02
2018-08-24T14:17:04.615Z,21.09
2018-08-24T14:20:08.525Z,20.86
2018-08-24T14:23:12.159Z,20.86
2018-08-24T14:26:15.980Z,20.87
2018-08-24T14:29:19.866Z,20.98
2018-08-24T14:32:23.549Z,20.83
2018-08-24T14:35:27.240Z,21.09
2018-08-24T14:38:30.975Z,21.08
2018-08-24T14:41:34.734Z,21.10
2018-08-24T14:44:38.416Z,21.23
2018-08-24T14:47:42.355Z,21.18
2018-08-24T14:50:45.939Z,21.04
2018-08-24T14:53:49.896Z,21.18
2018-08-24T14:56:53.549Z,21.22
2018-08-24T14:59:57.321Z,21.32
2018-08-24T15:03:01.002Z,21.69
2018-08-24T15:06:04.676Z,21.33
2018-08-24T15:09:10.357Z,21.03
2018-08-24T15:12:14.011Z,21.10
2018-08-24T15:15:17.676Z,20.83
2018-08-24T15:18:21.387Z,20.80
2018-08-24T15:21:25.006Z,21.06
2018-08-24T15:24:28.740Z,21.15
2018-08-24T15:27:32.357Z,21.23
2018-08-24T15:30:36.012Z,21.21
2018-08-24T15:33:39.697Z,20.84
2018-08-24T15:36:43.364Z,20.95
2018-08-24T15:39:47.041Z,20.92
2018-08-24T15:42:50.748Z,20.87
2018-08-24T15:45:54.441Z,20.41
2018-08-24T15:48:58.092Z,20.58
2018-08-24T15:52:01.726Z,20.32
2018-08-24T15:55:05.415Z,20.25
2018-08-24T15:58:09.291Z,20.11
2018-08-24T16:01:12.946Z,20.18
2018-08-24T16:04:16.575Z,20.15
2018-08-24T16:07:20.246Z,20.22
2018-08-24T16:10:23.903Z,20.12
2018-08-24T16:13:27.562Z,19.85
2018-08-24T16:16:31.325Z,19.54
2018-08-24T16:19:34.972Z,19.42
2018-08-24T16:22:38.672Z,19.26
2018-08-24T16:25:42.497Z,19.20
2018-08-24T16:28:46.342Z,18.97
2018-08-24T16:31:50.203Z,19.00
2018-08-24T16:34:53.837Z,18.97
2018-08-24T16:37:57.511Z,18.82
2018-08-24T16:41:01.797Z,18.67
2018-08-24T16:44:07.970Z,18.68
2018-08-24T16:47:11.844Z,18.65
2018-08-24T16:50:15.711Z,18.53
2018-08-24T16:53:19.372Z,18.53
2018-08-24T16:56:23.122Z,18.47
2018-08-24T16:59:26.846Z,18.38
2018-08-24T17:02:30.551Z,18.51
2018-08-24T17:05:34.233Z,18.37
2018-08-24T17:08:37.864Z,18.18
2018-08-24T17:11:41.810Z,18.18
2018-08-24T17:14:45.457Z,18.08
2018-08-24T17:17:49.193Z,17.98
2018-08-24T17:20:52.798Z,17.96
2018-08-24T17:23:56.402Z,17.90
2018-08-24T17:27:00.134Z,17.85
2018-08-24T17:30:03.870Z,17.84
2018-08-24T17:33:07.678Z,17.78
2018-08-24T17:36:11.453Z,17.68
2018-08-24T17:39:15.171Z,17.62
2018-08-24T17:42:18.916Z,17.56
2018-08-24T17:45:22.693Z,17.58
2018-08-24T17:48:26.341Z,17.50
2018-08-24T17:51:30.218Z,17.43
2018-08-24T17:54:33.903Z,17.41
2018-08-24T17:57:37.611Z,17.33
2018-08-24T18:00:41.339Z,17.23
2018-08-24T18:03:45.091Z,17.19
2018-08-24T18:06:48.752Z,17.13
2018-08-24T18:09:52.434Z,17.11
2018-08-24T18:12:56.058Z,17.01
2018-08-24T18:15:59.703Z,16.93
2018-08-24T18:19:03.422Z,16.81
2018-08-24T18:22:07.172Z,16.82
2018-08-24T18:25:10.926Z,16.72
2018-08-24T18:28:14.557Z,16.65
2018-08-24T18:31:18.188Z,16.62
2018-08-24T18:34:21.924Z,16.51
2018-08-24T18:37:25.588Z,16.54
2018-08-24T18:40:29.285Z,16.52
2018-08-24T18:43:33.129Z,16.44
2018-08-24T18:46:36.765Z,16.41
2018-08-24T18:49:40.489Z,16.39
2018-08-24T18:52:44.374Z,16.33
2018-08-24T18:55:48.138Z,16.28
2018-08-24T18:58:51.976Z,16.28
2018-08-24T19:01:55.729Z,16.30
2018-08-24T19:04:59.461Z,16.26
2018-08-24T19:08:09.129Z,16.19
2018-08-24T19:11:18.109Z,16.14
2018-08-24T19:14:22.004Z,16.07
2018-08-24T19:17:30.934Z,15.99
2018-08-24T19:20:39.682Z,15.88
2018-08-24T19:23:43.432Z,15.81
2018-08-24T19:26:48.177Z,15.72
2018-08-24T19:29:57.104Z,15.69
2018-08-24T19:33:00.864Z,15.71
2018-08-24T19:36:04.582Z,15.59
2018-08-24T19:39:11.762Z,15.59
2018-08-24T19:42:20.548Z,15.52
2018-08-24T19:45:24.307Z,15.53
2018-08-24T19:48:33.095Z,15.51
2018-08-24T19:51:36.784Z,15.47
2018-08-24T19:54:40.508Z,15.42
2018-08-24T19:57:49.538Z,15.33
2018-08-24T20:00:53.352Z,15.29
2018-08-24T20:03:56.999Z,15.23
2018-08-24T20:07:06.074Z,15.15
2018-08-24T20:10:11.343Z,15.14
2018-08-24T20:13:15.128Z,15.21
2018-08-24T20:16:24.050Z,15.03
2018-08-24T20:19:28.353Z,14.86
2018-08-24T20:22:32.025Z,14.77
2018-08-24T20:25:35.748Z,14.62
2018-08-24T20:28:39.517Z,14.49
2018-08-24T20:31:43.196Z,14.41
2018-08-24T20:34:46.952Z,14.38
2018-08-24T20:37:50.633Z,14.25
2018-08-24T20:40:54.391Z,14.17
2018-08-24T20:43:58.053Z,14.14
2018-08-24T20:47:01.887Z,14.08
2018-08-24T20:50:05.588Z,14.05
2018-08-24T20:53:09.385Z,14.04
2018-08-24T20:56:13.026Z,14.03
2018-08-24T20:59:16.803Z,14.06
2018-08-24T21:02:20.447Z,14.13
2018-08-24T21:05:24.078Z,14.09
2018-08-24T21:08:27.812Z,14.01
2018-08-24T21:11:31.503Z,14.03
2018-08-24T21:14:35.332Z,13.92
2018-08-24T21:17:39.114Z,13.83
2018-08-24T21:20:42.825Z,13.78
2018-08-24T21:23:46.689Z,13.99
2018-08-24T21:26:50.604Z,14.15
2018-08-24T21:29:54.415Z,14.25
2018-08-24T21:32:58.176Z,14.20
2018-08-24T21:36:01.848Z,14.08
2018-08-24T21:39:08.790Z,14.15
2018-08-24T21:42:12.779Z,14.18
2018-08-24T21:45:16.547Z,14.13
2018-08-24T21:48:20.219Z,14.09
2018-08-24T21:51:23.861Z,14.04
2018-08-24T21:54:27.546Z,13.92
2018-08-24T21:57:31.263Z,13.96
2018-08-24T22:00:39.172Z,13.81
2018-08-24T22:03:42.766Z,13.71
2018-08-24T22:06:46.531Z,13.66
2018-08-24T22:09:50.164Z,13.56
2018-08-24T22:12:53.795Z,13.47
2018-08-24T22:15:57.529Z,13.45
2018-08-24T22:19:01.538Z,13.34
2018-08-24T22:22:05.491Z,13.27
2018-08-24T22:25:09.214Z,13.22
2018-08-24T22:28:12.930Z,13.21
2018-08-24T22:31:16.536Z,13.08
2018-08-24T22:34:20.320Z,13.05
2018-08-24T22:37:23.981Z,13.18
2018-08-24T22:40:27.630Z,13.18
2018-08-24T22:43:35.811Z,13.15
2018-08-24T22:46:39.431Z,13.11
2018-08-24T22:49:43.086Z,13.14
2018-08-24T22:52:46.680Z,13.06
2018-08-24T22:55:50.551Z,13.03
2018-08-24T22:58:54.218Z,12.95
2018-08-24T23:01:57.937Z,12.99
2018-08-24T23:05:01.548Z,13.07
2018-08-24T23:08:05.324Z,13.08
2018-08-24T23:11:08.949Z,13.31
2018-08-24T23:14:12.725Z,13.26
2018-08-24T23:17:16.540Z,13.22
2018-08-24T23:20:20.144Z,13.18
2018-08-24T23:23:23.824Z,13.14
2018-08-24T23:26:27.554Z,13.09
2018-08-24T23:29:31.243Z,13.09
2018-08-24T23:32:34.984Z,13.12
2018-08-24T23:35:38.644Z,13.15
2018-08-24T23:38:42.304Z,13.16
2018-08-24T23:41:46.139Z,13.14
2018-08-24T23:44:49.816Z,13.16
2018-08-24T23:47:53.429Z,13.12
2018-08-24T23:50:57.140Z,13.07
2018-08-24T23:54:00.845Z,13.03
2018-08-24T23:57:04.520Z,13.07
